Latest Weather Observations for Broome

IDW60801

Issued at 10:05 pm WST Friday 29 August 2014 (issued every 30 minutes, with the page automatically refreshed every 10 minutes)

About weather observations | Map of weather stations | Latest weather observations for WA | Other Formats
Station Details ID: 003003 Name: BROOME AIRPORT Lat: -17.95 Lon: 122.24 Height: 7.42 m
Data from the previous 72 hours. | See also: Recent months at Broome
Date/Time
WST
Temp
°C
App
Temp
°C
Dew
Point
Rel
Hum
%
Delta-T
°C
Wind Press
QNH
hPa
Press
MSL
hPa
Rain
since 9 am
mm
Dir
 
Spd
km/h
Gust
km/h
Spd
kts
Gust
kts
29/10:00pm 18.3 19.2 17.5 95 0.5 WNW 9 11 5 6 1016.4 - 0.0
29/09:30pm 17.9 19.2 17.2 96 0.4 W 6 7 3 4 1016.4 - 0.0
29/09:00pm 17.5 19.2 16.3 93 0.7 WNW 2 6 1 3 1016.4 1016.3 0.0
29/08:30pm 19.4 21.1 18.1 92 0.8 W 6 9 3 5 1016.2 - 0.0
29/08:00pm 18.7 19.6 16.7 88 1.2 N 7 9 4 5 1015.9 - 0.0
29/07:30pm 20.9 22.0 18.0 83 1.8 NNW 9 11 5 6 1015.4 - 0.0
29/07:00pm 21.6 22.2 17.7 78 2.4 NW 11 15 6 8 1015.0 - 0.0
29/06:30pm 23.2 22.4 15.0 60 4.9 NW 13 17 7 9 1014.4 - 0.0
29/06:00pm 24.1 21.8 13.0 50 6.4 NW 17 26 9 14 1014.1 1014.0 0.0
29/05:30pm 24.6 23.0 14.9 54 5.8 NW 17 24 9 13 1013.9 - 0.0
29/05:00pm 26.3 23.1 11.1 38 8.6 NNW 19 26 10 14 1013.7 - 0.0
29/04:30pm 28.7 24.1 5.8 23 12.0 N 19 26 10 14 1013.2 - 0.0
29/04:00pm 30.6 25.9 -1.5 12 15.0 ESE 13 19 7 10 1012.9 - 0.0
29/03:30pm 30.1 25.2 2.0 16 13.9 SE 17 26 9 14 1012.8 - 0.0
29/03:00pm 31.9 25.1 -12.5 5 17.4 SE 19 26 10 14 1012.9 1012.8 0.0
29/02:30pm 31.5 25.3 -9.3 6 16.8 SE 17 26 9 14 1013.1 - 0.0
29/02:00pm 32.1 25.5 -9.8 6 17.2 SE 19 26 10 14 1013.4 - 0.0
29/01:30pm 31.4 25.4 -2.7 11 15.7 SE 19 26 10 14 1013.8 - 0.0
29/01:00pm 31.3 24.7 -8.6 7 16.6 SE 19 24 10 13 1014.2 - 0.0
29/12:30pm 32.1 26.2 -15.8 4 17.8 E 13 22 7 12 1014.7 - 0.0
29/12:00pm 32.2 27.0 -16.5 3 17.9 E 9 17 5 9 1015.2 1015.1 0.0
29/11:30am 32.6 25.6 -15.0 4 18.0 NE 19 28 10 15 1015.8 - 0.0
29/11:00am 31.4 24.3 -13.6 5 17.2 NE 20 28 11 15 1016.3 - 0.0
29/10:30am 29.4 24.5 -0.2 14 14.0 E 15 22 8 12 1016.7 - 0.0
29/10:00am 28.5 24.0 2.2 18 12.9 E 15 20 8 11 1017.2 - 0.0
29/09:30am 27.6 21.5 -7.7 9 14.4 E 17 22 9 12 1017.5 - 0.0
29/09:00am 25.1 19.8 -3.9 14 12.4 E 15 19 8 10 1017.6 1017.5 0.0
29/08:30am 22.5 19.2 2.3 26 9.5 ENE 9 13 5 7 1017.5 - 0.0
29/08:00am 19.2 16.9 9.1 52 5.3 E 11 17 6 9 1017.4 - 0.0
29/07:30am 15.6 13.8 10.9 73 2.5 SE 11 15 6 8 1017.2 - 0.0
29/07:00am 15.4 14.8 12.3 82 1.7 ESE 7 11 4 6 1016.7 - 0.0
29/06:30am 12.6 11.6 11.1 91 0.8 E 7 7 4 4 1016.4 - 0.0
29/06:00am 11.2 10.1 10.6 96 0.3 ESE 7 9 4 5 1016.4 1016.3 0.0
29/05:30am 11.0 9.9 10.0 93 0.5 ESE 6 7 3 4 1016.1 - 0.0
29/05:00am 10.7 10.7 9.9 95 0.4 CALM 0 0 0 0 1015.6 - 0.0
29/04:30am 11.6 11.9 10.8 95 0.4 CALM 0 0 0 0 1015.4 - 0.0
29/04:00am 12.2 11.5 11.4 95 0.4 E 6 6 3 3 1015.4 - 0.0
29/03:30am 11.8 10.9 11.4 97 0.2 ENE 7 9 4 5 1015.4 - 0.0
29/03:00am 12.3 13.0 12.1 99 0.1 CALM 0 0 0 0 1015.4 1015.3 0.0
29/02:30am 12.9 12.5 12.3 96 0.3 N 6 9 3 5 1015.5 - 0.0
29/02:02am 13.1 13.9 12.7 97 0.2 CALM 0 0 0 0 1015.7 - 0.0
29/02:00am 13.1 13.9 12.5 96 0.3 CALM 0 0 0 0 1015.7 - 0.0
29/01:43am 13.9 15.0 13.4 97 0.3 CALM 0 - 0 - 1015.7 - 0.0
29/01:42am 13.6 14.7 13.4 99 0.1 CALM 0 - 0 - 1015.7 - 0.0
29/01:30am 14.6 15.8 13.9 96 0.4 CALM 0 0 0 0 1015.8 - 0.0
29/01:21am 14.1 15.2 13.6 97 0.3 CALM 0 0 0 0 1015.8 - 0.0
29/01:08am 14.4 15.3 13.9 97 0.3 NNE 2 6 1 3 1016.0 - 0.0
29/01:00am 14.0 14.1 13.8 99 0.1 N 6 9 3 5 1015.9 - 0.0
29/12:58am 14.1 14.1 13.6 97 0.3 N 6 9 3 5 1015.9 - 0.0
29/12:51am 14.1 14.1 13.7 97 0.2 N 6 9 3 5 1015.9 - 0.0
29/12:30am 14.3 14.4 13.9 97 0.2 N 6 9 3 5 1016.0 - 0.0
29/12:00am 15.4 15.6 14.2 92 0.7 ESE 6 7 3 4 1016.3 1016.2 0.0
 
Date/Time
WST
Temp
°C
App
Temp
°C
Dew
Point
Rel
Hum
%
Delta-T
°C
Wind Press
QNH
hPa
Press
MSL
hPa
Rain
since 9 am
mm
Dir
 
Spd
km/h
Gust
km/h
Spd
kts
Gust
kts
28/11:30pm 19.9 21.4 18.0 89 1.2 S 7 11 4 6 1016.4 - 0.0
28/11:00pm 18.3 19.7 17.8 97 0.3 S 7 9 4 5 1016.4 - 0.0
28/10:30pm 16.9 18.1 15.9 94 0.6 ESE 4 9 2 5 1016.5 - 0.0
28/10:00pm 19.4 22.3 18.3 93 0.7 CALM 0 0 0 0 1016.3 - 0.0
28/09:30pm 18.5 21.0 17.3 93 0.7 CALM 0 6 0 3 1016.3 - 0.0
28/09:00pm 18.8 20.6 17.3 91 0.9 W 4 9 2 5 1016.0 1015.9 0.0
28/08:30pm 18.0 19.4 16.5 91 0.9 W 4 7 2 4 1016.1 - 0.0
28/08:00pm 19.9 21.2 17.6 86 1.4 NW 7 9 4 5 1015.8 - 0.0
28/07:30pm 21.7 21.7 18.2 80 2.2 NNW 15 19 8 10 1015.4 - 0.0
28/07:00pm 21.4 22.4 18.7 84 1.7 NNW 11 13 6 7 1014.9 - 0.0
28/06:30pm 21.7 23.5 18.7 83 1.9 NNW 7 11 4 6 1014.5 - 0.0
28/06:00pm 22.8 22.9 18.3 76 2.8 NNW 15 19 8 10 1014.1 1014.0 0.0
28/05:30pm 23.6 23.5 17.8 70 3.6 NNW 15 20 8 11 1013.8 - 0.0
28/05:00pm 24.8 23.6 16.1 58 5.3 NW 17 20 9 11 1013.6 - 0.0
28/04:30pm 26.0 23.8 13.4 45 7.4 NW 17 24 9 13 1013.3 - 0.0
28/04:00pm 26.8 23.8 10.6 36 9.1 NW 17 24 9 13 1013.1 - 0.0
28/03:30pm 27.0 23.2 8.9 32 9.9 NW 19 28 10 15 1013.2 - 0.0
28/03:00pm 27.6 23.9 8.0 29 10.6 NW 17 24 9 13 1013.2 1013.1 0.0
28/02:30pm 27.8 23.7 8.8 30 10.4 NW 20 28 11 15 1013.5 - 0.0
28/02:00pm 27.6 23.0 8.2 29 10.5 WNW 22 32 12 17 1013.7 - 0.0
28/01:30pm 28.4 25.4 11.8 35 9.6 W 19 26 10 14 1013.9 - 0.0
28/01:00pm 29.4 24.7 6.1 23 12.3 WNW 20 30 11 16 1014.1 - 0.0
28/12:30pm 33.0 26.9 -8.1 6 17.5 NE 17 26 9 14 1014.1 - 0.0
28/12:00pm 32.1 25.5 -9.0 6 17.1 E 19 30 10 16 1014.6 1014.5 0.0
28/11:30am 32.1 25.0 -8.3 7 17.0 ENE 22 33 12 18 1015.1 - 0.0
28/11:00am 31.8 25.2 -7.4 7 16.7 ENE 20 28 11 15 1015.6 - 0.0
28/10:30am 31.0 24.7 -5.8 9 16.0 E 19 30 10 16 1016.0 - 0.0
28/10:00am 29.6 23.2 -5.1 10 15.1 E 20 28 11 15 1016.4 - 0.0
28/09:30am 27.8 21.2 -7.0 10 14.4 ENE 20 30 11 16 1016.6 - 0.0
28/09:00am 25.8 19.3 -6.3 11 13.2 E 20 32 11 17 1016.7 1016.6 0.0
28/08:30am 24.1 17.7 -6.9 12 12.4 E 19 30 10 16 1016.6 - 0.0
28/08:00am 21.1 16.8 -1.6 21 9.8 E 11 20 6 11 1016.4 - 0.0
28/07:30am 18.9 14.8 2.0 32 7.7 ESE 13 15 7 8 1016.1 - 0.0
28/07:00am 16.9 14.4 4.6 44 5.8 ESE 7 9 4 5 1016.0 - 0.0
28/06:30am 15.4 12.4 4.2 47 5.2 SE 9 13 5 7 1015.6 - 0.0
28/06:00am 10.4 8.4 8.8 90 0.8 SE 9 11 5 6 1015.3 1015.2 0.0
28/05:30am 10.2 8.8 9.0 92 0.6 ESE 6 7 3 4 1015.3 - 0.0
28/05:00am 10.0 9.7 8.8 92 0.6 CALM 0 4 0 2 1014.8 - 0.0
28/04:30am 10.9 9.3 8.7 86 1.1 ENE 7 11 4 6 1014.8 - 0.0
28/04:00am 12.0 11.2 11.0 94 0.5 ENE 6 9 3 5 1014.7 - 0.0
28/03:30am 12.0 10.1 10.6 91 0.7 NE 11 13 6 7 1014.8 - 0.0
28/03:00am 12.6 11.9 11.3 92 0.7 NE 6 13 3 7 1014.6 1014.5 0.0
28/02:30am 17.0 16.3 13.3 79 2.1 SSE 9 11 5 6 1014.4 - 0.0
28/02:00am 16.0 15.8 13.5 85 1.4 S 7 11 4 6 1014.4 - 0.0
28/01:30am 14.3 14.6 13.4 94 0.5 ESE 4 9 2 5 1014.6 - 0.0
28/01:00am 13.4 12.9 12.1 92 0.7 E 6 7 3 4 1014.8 - 0.0
28/12:30am 13.8 14.0 11.9 88 1.0 SSW 2 7 1 4 1015.0 - 0.0
28/12:00am 14.2 15.2 13.1 93 0.6 CALM 0 0 0 0 1015.4 1015.3 0.0
 
Date/Time
WST
Temp
°C
App
Temp
°C
Dew
Point
Rel
Hum
%
Delta-T
°C
Wind Press
QNH
hPa
Press
MSL
hPa
Rain
since 9 am
mm
Dir
 
Spd
km/h
Gust
km/h
Spd
kts
Gust
kts
27/11:30pm 14.2 15.0 12.5 89 0.9 CALM 0 0 0 0 1015.6 - 0.0
27/11:00pm 14.7 15.8 13.4 92 0.7 CALM 0 0 0 0 1015.6 - 0.0
27/10:30pm 14.9 15.1 13.1 89 1.0 ENE 4 6 2 3 1015.8 - 0.0
27/10:00pm 15.7 16.6 13.9 89 1.0 SW 2 7 1 4 1015.8 - 0.0
27/09:30pm 16.4 17.8 14.5 88 1.1 CALM 0 0 0 0 1016.1 - 0.0
27/09:00pm 16.9 18.4 14.6 86 1.3 CALM 0 0 0 0 1016.0 1015.9 0.0
27/08:30pm 19.9 20.8 16.0 78 2.3 WSW 6 7 3 4 1015.7 - 0.0
27/08:00pm 20.9 21.7 16.4 75 2.7 W 7 11 4 6 1015.4 - 0.0
27/07:30pm 21.4 21.9 16.6 74 2.9 W 9 11 5 6 1015.0 - 0.0
27/07:00pm 22.3 22.7 15.4 65 4.1 W 7 11 4 6 1014.6 - 0.0
27/06:30pm 22.8 22.4 15.3 62 4.5 NW 11 15 6 8 1014.0 - 0.0
27/06:00pm 23.3 22.1 14.1 56 5.4 NW 13 19 7 10 1013.7 1013.6 0.0
27/05:30pm 24.4 23.1 12.6 47 6.8 NW 11 19 6 10 1013.6 - 0.0
27/05:00pm 25.5 23.6 11.8 42 7.8 NW 13 20 7 11 1013.5 - 0.0
27/04:30pm 26.4 23.6 11.2 38 8.6 NW 17 24 9 13 1013.5 - 0.0
27/04:00pm 27.3 23.2 8.8 31 10.1 WNW 20 28 11 15 1013.4 - 0.0
27/03:30pm 27.2 23.5 10.0 34 9.6 WNW 20 32 11 17 1013.4 - 0.0
27/03:00pm 28.9 24.5 6.7 24 11.8 NW 19 26 10 14 1013.1 1013.0 0.0
27/02:30pm 30.1 26.0 2.0 16 13.9 NW 13 22 7 12 1013.1 - 0.0
27/02:00pm 31.8 25.7 -2.0 11 15.8 SE 20 28 11 15 1013.1 - 0.0
27/01:30pm 31.5 26.4 -5.2 9 16.2 ESE 13 19 7 10 1013.5 - 0.0
27/01:00pm 32.3 26.2 -8.1 7 17.1 ENE 17 24 9 13 1014.0 - 0.0
27/12:30pm 31.9 25.3 -9.1 6 17.0 E 19 28 10 15 1014.3 - 0.0
27/12:00pm 31.5 25.2 -10.2 6 16.9 E 17 26 9 14 1014.7 1014.6 0.0
27/11:30am 31.1 23.8 -11.3 6 16.8 NE 22 32 12 17 1015.1 - 0.0
27/11:00am 30.3 23.8 -7.7 8 15.9 E 19 28 10 15 1015.7 - 0.0
27/10:30am 29.7 22.3 -7.3 8 15.5 NE 24 37 13 20 1016.2 - 0.0
27/10:00am 28.6 21.5 -8.1 8 15.0 E 22 39 12 21 1016.5 - 0.0
27/09:30am 27.6 20.7 -6.4 10 14.2 E 22 35 12 19 1016.7 - 0.0
27/09:00am 26.0 19.2 -5.1 12 13.1 E 22 32 12 17 1016.9 1016.8 0.0
27/08:30am 23.7 17.6 -4.1 15 11.7 ENE 19 26 10 14 1017.0 - 0.0
27/08:00am 22.5 16.9 -3.3 17 10.9 ENE 17 24 9 13 1016.8 - 0.0
27/07:30am 19.7 16.5 0.6 28 8.5 E 7 11 4 6 1016.5 - 0.0
27/07:00am 16.9 13.6 -0.2 31 7.3 E 7 9 4 5 1016.3 - 0.0
27/06:30am 13.3 10.5 2.9 49 4.6 E 7 11 4 6 1015.9 - 0.0
27/06:00am 12.7 9.8 2.4 49 4.5 ENE 7 9 4 5 1015.5 1015.4 0.0
27/05:30am 13.4 9.6 1.5 44 5.1 E 11 13 6 7 1015.1 - 0.0
27/05:00am 14.5 12.6 0.7 39 5.9 CALM 0 0 0 0 1014.6 - 0.0
27/04:30am 12.7 12.1 7.3 69 2.6 CALM 0 0 0 0 1014.5 - 0.0
27/04:14am 10.9 10.9 9.9 93 0.5 CALM 0 0 0 0 1014.3 - 0.0
27/04:00am 10.4 10.3 9.6 95 0.4 CALM 0 0 0 0 1014.4 - 0.0
27/03:30am 11.3 11.5 10.5 95 0.4 CALM 0 0 0 0 1014.3 - 0.0
27/03:00am 11.6 11.7 10.0 90 0.8 CALM 0 0 0 0 1014.5 1014.4 0.0
27/02:53am 11.7 11.9 10.7 94 0.5 CALM 0 0 0 0 1014.5 - 0.0
27/02:30am 11.5 11.6 10.1 91 0.7 CALM 0 0 0 0 1014.4 - 0.0
27/02:00am 11.6 11.7 10.0 90 0.8 CALM 0 0 0 0 1014.8 - 0.0
27/01:30am 11.3 11.1 9.1 86 1.1 CALM 0 0 0 0 1014.9 - 0.0
27/01:00am 11.4 11.2 9.0 85 1.2 CALM 0 0 0 0 1015.1 - 0.0
27/12:30am 11.0 10.8 9.0 87 1.0 CALM 0 0 0 0 1015.4 - 0.0
27/12:00am 12.2 12.2 9.8 85 1.2 CALM 0 0 0 0 1015.4 1015.3 0.0
 
Date/Time
WST
Temp
°C
App
Temp
°C
Dew
Point
Rel
Hum
%
Delta-T
°C
Wind Press
QNH
hPa
Press
MSL
hPa
Rain
since 9 am
mm
Dir
 
Spd
km/h
Gust
km/h
Spd
kts
Gust
kts
26/11:30pm 12.7 12.8 10.0 84 1.4 CALM 0 0 0 0 1015.4 - 0.0
26/11:00pm 14.2 14.5 11.0 81 1.7 CALM 0 0 0 0 1015.5 - 0.0
26/10:30pm 14.1 14.3 10.7 80 1.8 CALM 0 0 0 0 1015.6 - 0.0

Other Formats:

Comma delimited format used in spreadsheet applications
http://www.bom.gov.au/fwo/IDW60801/IDW60801.94203.axf

JavaScript Object Notation format (JSON) in row-major order
http://www.bom.gov.au/fwo/IDW60801/IDW60801.94203.json